sensor_id;sensor_type;location;lat;lon;timestamp;pressure;altitude;pressure_sealevel;temperature;humidity
14204;BME280;7185;51.854;6.622;2023-04-07T00:02:00;101102.94;;;10.32;100.00
14204;BME280;7185;51.854;6.622;2023-04-07T00:04:32;101109.03;;;10.33;100.00
14204;BME280;7185;51.854;6.622;2023-04-07T00:07:04;101107.22;;;10.44;100.00
14204;BME280;7185;51.854;6.622;2023-04-07T00:09:37;101101.13;;;10.42;100.00
14204;BME280;7185;51.854;6.622;2023-04-07T00:12:09;101103.78;;;10.36;100.00
14204;BME280;7185;51.854;6.622;2023-04-07T00:14:41;101106.41;;;10.39;100.00
14204;BME280;7185;51.854;6.622;2023-04-07T00:17:13;101109.91;;;10.33;100.00
14204;BME280;7185;51.854;6.622;2023-04-07T00:19:45;101095.06;;;10.37;100.00
14204;BME280;7185;51.854;6.622;2023-04-07T00:22:18;101100.34;;;10.31;100.00
14204;BME280;7185;51.854;6.622;2023-04-07T00:24:53;101100.25;;;10.43;100.00
14204;BME280;7185;51.854;6.622;2023-04-07T00:27:24;101106.41;;;10.39;100.00
14204;BME280;7185;51.854;6.622;2023-04-07T00:29:56;101105.53;;;10.34;100.00
14204;BME280;7185;51.854;6.622;2023-04-07T00:32:28;101102.16;;;10.23;100.00
14204;BME280;7185;51.854;6.622;2023-04-07T00:35:00;101102.09;;;10.29;100.00
14204;BME280;7185;51.854;6.622;2023-04-07T00:37:32;101096.78;;;10.35;100.00
14204;BME280;7185;51.854;6.622;2023-04-07T00:40:06;101101.91;;;10.50;100.00
14204;BME280;7185;51.854;6.622;2023-04-07T00:42:38;101107.97;;;10.59;100.00
14204;BME280;7185;51.854;6.622;2023-04-07T00:45:10;101096.69;;;10.47;100.00
14204;BME280;7185;51.854;6.622;2023-04-07T00:47:42;101101.94;;;10.47;100.00
14204;BME280;7185;51.854;6.622;2023-04-07T00:50:15;101101.91;;;10.50;100.00
14204;BME280;7185;51.854;6.622;2023-04-07T00:52:49;101101.91;;;10.50;100.00
14204;BME280;7185;51.854;6.622;2023-04-07T00:55:25;101103.78;;;10.36;100.00
14204;BME280;7185;51.854;6.622;2023-04-07T00:57:57;101097.63;;;10.40;100.00
14204;BME280;7185;51.854;6.622;2023-04-07T01:00:29;101094.19;;;10.38;100.00
14204;BME280;7185;51.854;6.622;2023-04-07T01:03:08;101097.66;;;10.39;100.00
14204;BME280;7185;51.854;6.622;2023-04-07T01:05:52;101089.75;;;10.46;100.00
14204;BME280;7185;51.854;6.622;2023-04-07T01:08:29;101090.63;;;10.45;100.00
14204;BME280;7185;51.854;6.622;2023-04-07T01:11:07;101091.50;;;10.44;100.00
14204;BME280;7185;51.854;6.622;2023-04-07T01:13:49;101096.75;;;10.44;100.00
14204;BME280;7185;51.854;6.622;2023-04-07T01:16:26;101096.69;;;10.50;100.00
14204;BME280;7185;51.854;6.622;2023-04-07T01:19:08;101090.56;;;10.50;100.00
14204;BME280;7185;51.854;6.622;2023-04-07T01:21:59;101093.19;;;10.51;100.00
14204;BME280;7185;51.854;6.622;2023-04-07T01:24:45;101094.91;;;10.52;100.00
14204;BME280;7185;51.854;6.622;2023-04-07T01:30:40;101095.69;;;10.62;100.00
14204;BME280;7185;51.854;6.622;2023-04-07T01:33:20;101092.28;;;10.54;100.00
14204;BME280;7185;51.854;6.622;2023-04-07T01:36:02;101093.03;;;10.67;100.00
14204;BME280;7185;51.854;6.622;2023-04-07T01:38:36;101094.72;;;10.71;100.00
14204;BME280;7185;51.854;6.622;2023-04-07T01:41:08;101098.34;;;10.58;100.00
14204;BME280;7185;51.854;6.622;2023-04-07T01:43:41;101103.50;;;10.67;100.00
14204;BME280;7185;51.854;6.622;2023-04-07T01:46:15;101107.00;;;10.66;100.00
14204;BME280;7185;51.854;6.622;2023-04-07T01:48:48;101103.47;;;10.70;100.00
14204;BME280;7185;51.854;6.622;2023-04-07T01:51:52;101099.06;;;10.72;100.00
14204;BME280;7185;51.854;6.622;2023-04-07T01:54:24;101104.34;;;10.69;100.00
14204;BME280;7185;51.854;6.622;2023-04-07T01:56:57;101099.06;;;10.72;100.00
14204;BME280;7185;51.854;6.622;2023-04-07T01:59:33;101101.78;;;10.66;100.00
14204;BME280;7185;51.854;6.622;2023-04-07T02:02:09;101103.50;;;10.65;100.00
14204;BME280;7185;51.854;6.622;2023-04-07T02:04:48;101104.41;;;10.66;100.00
14204;BME280;7185;51.854;6.622;2023-04-07T02:07:28;101097.34;;;10.71;100.00
14204;BME280;7185;51.854;6.622;2023-04-07T02:10:02;101095.53;;;10.76;100.00
14204;BME280;7185;51.854;6.622;2023-04-07T02:12:36;101098.91;;;10.86;100.00
14204;BME280;7185;51.854;6.622;2023-04-07T02:15:12;101105.19;;;10.74;100.00
14204;BME280;7185;51.854;6.622;2023-04-07T02:17:51;101092.94;;;10.73;100.00
14204;BME280;7185;51.854;6.622;2023-04-07T02:20:26;101097.25;;;10.80;100.00
14204;BME280;7185;51.854;6.622;2023-04-07T02:22:59;101096.41;;;10.75;100.00
14204;BME280;7185;51.854;6.622;2023-04-07T02:25:31;101094.72;;;10.71;100.00
14204;BME280;7185;51.854;6.622;2023-04-07T02:28:04;101103.50;;;10.65;100.00
14204;BME280;7185;51.854;6.622;2023-04-07T02:30:37;101101.72;;;10.69;100.00
14204;BME280;7185;51.854;6.622;2023-04-07T02:33:10;101103.41;;;10.75;100.00
14204;BME280;7185;51.854;6.622;2023-04-07T02:35:42;101106.91;;;10.75;100.00
14204;BME280;7185;51.854;6.622;2023-04-07T02:38:13;101099.09;;;10.71;100.00
14204;BME280;7185;51.854;6.622;2023-04-07T02:40:45;101101.78;;;10.66;100.00
14204;BME280;7185;51.854;6.622;2023-04-07T02:43:16;101102.63;;;10.66;100.00
14204;BME280;7185;51.854;6.622;2023-04-07T02:45:48;101107.81;;;10.71;100.00
14204;BME280;7185;51.854;6.622;2023-04-07T02:48:21;101112.22;;;10.69;100.00
14204;BME280;7185;51.854;6.622;2023-04-07T02:50:53;101113.13;;;10.66;100.00
14204;BME280;7185;51.854;6.622;2023-04-07T02:53:24;101120.88;;;10.77;100.00
14204;BME280;7185;51.854;6.622;2023-04-07T02:55:56;101115.69;;;10.74;100.00
14204;BME280;7185;51.854;6.622;2023-04-07T02:58:27;101115.59;;;10.80;100.00
14204;BME280;7185;51.854;6.622;2023-04-07T03:00:59;101118.25;;;10.77;100.00
14204;BME280;7185;51.854;6.622;2023-04-07T03:03:38;101129.69;;;10.70;100.00
14204;BME280;7185;51.854;6.622;2023-04-07T03:06:11;101125.25;;;10.78;100.00
14204;BME280;7185;51.854;6.622;2023-04-07T03:08:42;101127.94;;;10.72;100.00
14204;BME280;7185;51.854;6.622;2023-04-07T03:11:14;101127.94;;;10.72;100.00
14204;BME280;7185;51.854;6.622;2023-04-07T03:13:45;101122.63;;;10.78;100.00
14204;BME280;7185;51.854;6.622;2023-04-07T03:16:17;101130.41;;;10.84;100.00
14204;BME280;7185;51.854;6.622;2023-04-07T03:18:50;101125.22;;;10.80;100.00
14204;BME280;7185;51.854;6.622;2023-04-07T03:21:21;101131.22;;;10.90;100.00
14204;BME280;7185;51.854;6.622;2023-04-07T03:23:53;101134.06;;;10.71;100.00
14204;BME280;7185;51.854;6.622;2023-04-07T03:26:25;101129.66;;;10.75;100.00
14204;BME280;7185;51.854;6.622;2023-04-07T03:28:56;101135.00;;;10.64;100.00
14204;BME280;7185;51.854;6.622;2023-04-07T03:31:28;101134.03;;;10.74;100.00
14204;BME280;7185;51.854;6.622;2023-04-07T03:34:01;101140.16;;;10.73;100.00
14204;BME280;7185;51.854;6.622;2023-04-07T03:36:33;101134.06;;;10.70;100.00
14204;BME280;7185;51.854;6.622;2023-04-07T03:39:04;101132.41;;;10.61;100.00
14204;BME280;7185;51.854;6.622;2023-04-07T03:41:36;101136.81;;;10.59;100.00
14204;BME280;7185;51.854;6.622;2023-04-07T03:44:07;101136.84;;;10.54;100.00
14204;BME280;7185;51.854;6.622;2023-04-07T03:46:39;101143.00;;;10.51;100.00
14204;BME280;7185;51.854;6.622;2023-04-07T03:49:12;101131.50;;;10.65;100.00
14204;BME280;7185;51.854;6.622;2023-04-07T03:51:44;101135.94;;;10.60;100.00
14204;BME280;7185;51.854;6.622;2023-04-07T03:54:15;101136.81;;;10.56;100.00
14204;BME280;7185;51.854;6.622;2023-04-07T03:56:47;101142.06;;;10.59;100.00
14204;BME280;7185;51.854;6.622;2023-04-07T03:59:19;101141.16;;;10.60;100.00
14204;BME280;7185;51.854;6.622;2023-04-07T04:01:51;101143.69;;;10.71;100.00
14204;BME280;7185;51.854;6.622;2023-04-07T04:04:24;101146.31;;;10.67;100.00
14204;BME280;7185;51.854;6.622;2023-04-07T04:06:55;101145.41;;;10.70;100.00
14204;BME280;7185;51.854;6.622;2023-04-07T04:09:27;101153.31;;;10.68;100.00
14204;BME280;7185;51.854;6.622;2023-04-07T04:11:59;101157.72;;;10.62;100.00
14204;BME280;7185;51.854;6.622;2023-04-07T04:14:30;101159.53;;;10.60;100.00
14204;BME280;7185;51.854;6.622;2023-04-07T04:17:02;101150.72;;;10.64;100.00
14204;BME280;7185;51.854;6.622;2023-04-07T04:19:35;101157.69;;;10.66;100.00
14204;BME280;7185;51.854;6.622;2023-04-07T04:22:06;101153.28;;;10.73;100.00
14204;BME280;7185;51.854;6.622;2023-04-07T04:24:38;101155.91;;;10.73;100.00
14204;BME280;7185;51.854;6.622;2023-04-07T04:27:11;101156.84;;;10.66;100.00
14204;BME280;7185;51.854;6.622;2023-04-07T04:29:42;101154.16;;;10.69;100.00
14204;BME280;7185;51.854;6.622;2023-04-07T04:32:14;101158.53;;;10.70;100.00
14204;BME280;7185;51.854;6.622;2023-04-07T04:34:48;101160.22;;;10.77;100.00
14204;BME280;7185;51.854;6.622;2023-04-07T04:37:20;101162.84;;;10.77;100.00
14204;BME280;7185;51.854;6.622;2023-04-07T04:39:52;101164.66;;;10.71;100.00
14204;BME280;7185;51.854;6.622;2023-04-07T04:42:23;101166.38;;;10.72;100.00
14204;BME280;7185;51.854;6.622;2023-04-07T04:44:57;101169.81;;;10.78;100.00
14204;BME280;7185;51.854;6.622;2023-04-07T04:47:28;101169.91;;;10.69;100.00
14204;BME280;7185;51.854;6.622;2023-04-07T04:50:01;101170.00;;;10.60;100.00
14204;BME280;7185;51.854;6.622;2023-04-07T04:52:33;101170.91;;;10.59;100.00
14204;BME280;7185;51.854;6.622;2023-04-07T04:55:05;101176.94;;;10.67;100.00
14204;BME280;7185;51.854;6.622;2023-04-07T04:57:37;101170.84;;;10.63;100.00
14204;BME280;7185;51.854;6.622;2023-04-07T05:00:10;101176.97;;;10.64;100.00
14204;BME280;7185;51.854;6.622;2023-04-07T05:02:42;101182.19;;;10.67;100.00
14204;BME280;7185;51.854;6.622;2023-04-07T05:05:17;101184.81;;;10.65;100.00
14204;BME280;7185;51.854;6.622;2023-04-07T05:07:49;101185.75;;;10.60;100.00
14204;BME280;7185;51.854;6.622;2023-04-07T05:10:20;101185.69;;;10.66;100.00
14204;BME280;7185;51.854;6.622;2023-04-07T05:12:52;101177.81;;;10.66;100.00
14204;BME280;7185;51.854;6.622;2023-04-07T05:15:23;101185.81;;;10.54;100.00
14204;BME280;7185;51.854;6.622;2023-04-07T05:17:55;101191.00;;;10.57;100.00
14204;BME280;7185;51.854;6.622;2023-04-07T05:20:28;101189.25;;;10.59;100.00
14204;BME280;7185;51.854;6.622;2023-04-07T05:23:00;101191.03;;;10.52;100.00
14204;BME280;7185;51.854;6.622;2023-04-07T05:25:32;101199.75;;;10.59;100.00
14204;BME280;7185;51.854;6.622;2023-04-07T05:28:03;101195.31;;;10.61;100.00
14204;BME280;7185;51.854;6.622;2023-04-07T05:30:35;101197.06;;;10.63;100.00
14204;BME280;7185;51.854;6.622;2023-04-07T05:33:07;101202.41;;;10.54;100.00
14204;BME280;7185;51.854;6.622;2023-04-07T05:35:40;101201.47;;;10.60;100.00
14204;BME280;7185;51.854;6.622;2023-04-07T05:38:12;101208.34;;;10.73;100.00
14204;BME280;7185;51.854;6.622;2023-04-07T05:40:43;101205.78;;;10.67;100.00
14204;BME280;7185;51.854;6.622;2023-04-07T05:43:16;101210.97;;;10.72;100.00
14204;BME280;7185;51.854;6.622;2023-04-07T05:45:47;101210.06;;;10.77;100.00
14204;BME280;7185;51.854;6.622;2023-04-07T05:48:19;101213.56;;;10.78;100.00
14204;BME280;7185;51.854;6.622;2023-04-07T05:50:53;101211.88;;;10.69;100.00
14204;BME280;7185;51.854;6.622;2023-04-07T05:53:24;101217.97;;;10.73;100.00
14204;BME280;7185;51.854;6.622;2023-04-07T05:55:56;101218.84;;;10.73;100.00
14204;BME280;7185;51.854;6.622;2023-04-07T05:58:27;101216.97;;;10.84;100.00
14204;BME280;7185;51.854;6.622;2023-04-07T06:00:59;101219.63;;;10.80;100.00
14204;BME280;7185;51.854;6.622;2023-04-07T06:03:31;101221.34;;;10.82;100.00
14204;BME280;7185;51.854;6.622;2023-04-07T06:06:04;101219.69;;;10.77;100.00
14204;BME280;7185;51.854;6.622;2023-04-07T06:08:36;101232.72;;;10.84;100.00
14204;BME280;7185;51.854;6.622;2023-04-07T06:11:07;101225.78;;;10.80;100.00
14204;BME280;7185;51.854;6.622;2023-04-07T06:13:39;101233.59;;;10.87;100.00
14204;BME280;7185;51.854;6.622;2023-04-07T06:16:10;101231.81;;;10.90;100.00
14204;BME280;7185;51.854;6.622;2023-04-07T06:18:42;101233.59;;;10.87;100.00
14204;BME280;7185;51.854;6.622;2023-04-07T06:21:15;101239.66;;;10.92;100.00
14204;BME280;7185;51.854;6.622;2023-04-07T06:23:46;101236.06;;;11.02;100.00
14204;BME280;7185;51.854;6.622;2023-04-07T06:26:18;101237.91;;;10.91;100.00
14204;BME280;7185;51.854;6.622;2023-04-07T06:28:51;101244.81;;;11.01;100.00
14204;BME280;7185;51.854;6.622;2023-04-07T06:31:23;101243.03;;;11.05;100.00
14204;BME280;7185;51.854;6.622;2023-04-07T06:33:55;101249.22;;;10.97;100.00
14204;BME280;7185;51.854;6.622;2023-04-07T06:36:28;101247.38;;;11.07;100.00
14204;BME280;7185;51.854;6.622;2023-04-07T06:38:59;101250.06;;;11.01;100.00
14204;BME280;7185;51.854;6.622;2023-04-07T06:41:31;101252.66;;;11.06;100.00
14204;BME280;7185;51.854;6.622;2023-04-07T06:44:03;101254.44;;;10.99;100.00
14204;BME280;7185;51.854;6.622;2023-04-07T06:46:35;101253.50;;;11.06;100.00
14204;BME280;7185;51.854;6.622;2023-04-07T06:49:06;101254.38;;;11.05;100.00
14204;BME280;7185;51.854;6.622;2023-04-07T06:51:39;101263.16;;;11.06;100.00
14204;BME280;7185;51.854;6.622;2023-04-07T06:54:11;101262.19;;;11.11;100.00
14204;BME280;7185;51.854;6.622;2023-04-07T06:56:44;101270.06;;;11.13;100.00
14204;BME280;7185;51.854;6.622;2023-04-07T06:59:15;101268.22;;;11.21;100.00
14204;BME280;7185;51.854;6.622;2023-04-07T07:01:47;101274.38;;;11.19;100.00
14204;BME280;7185;51.854;6.622;2023-04-07T07:04:18;101275.25;;;11.18;100.00
14204;BME280;7185;51.854;6.622;2023-04-07T07:06:51;101276.16;;;11.16;100.00
14204;BME280;7185;51.854;6.622;2023-04-07T07:09:25;101273.50;;;11.18;100.00
14204;BME280;7185;51.854;6.622;2023-04-07T07:11:57;101278.88;;;11.04;100.00
14204;BME280;7185;51.854;6.622;2023-04-07T07:14:31;101277.00;;;11.20;100.00
14204;BME280;7185;51.854;6.622;2023-04-07T07:17:02;101276.09;;;11.23;100.00
14204;BME280;7185;51.854;6.622;2023-04-07T07:19:34;101277.94;;;11.14;100.00
14204;BME280;7185;51.854;6.622;2023-04-07T07:22:08;101272.59;;;11.24;100.00
14204;BME280;7185;51.854;6.622;2023-04-07T07:24:39;101277.72;;;11.36;100.00
14204;BME280;7185;51.854;6.622;2023-04-07T07:27:11;101276.13;;;11.20;100.00
14204;BME280;7185;51.854;6.622;2023-04-07T07:29:42;101282.06;;;11.39;100.00
14204;BME280;7185;51.854;6.622;2023-04-07T07:32:14;101278.44;;;11.51;100.00
14204;BME280;7185;51.854;6.622;2023-04-07T07:34:45;101284.59;;;11.45;100.00
14204;BME280;7185;51.854;6.622;2023-04-07T07:37:18;101287.97;;;11.56;100.00
14204;BME280;7185;51.854;6.622;2023-04-07T07:39:50;101288.84;;;11.57;100.00
14204;BME280;7185;51.854;6.622;2023-04-07T07:42:21;101294.97;;;11.59;100.00
14204;BME280;7185;51.854;6.622;2023-04-07T07:44:53;101300.13;;;11.67;100.00
14204;BME280;7185;51.854;6.622;2023-04-07T07:47:25;101295.75;;;11.69;100.00
14204;BME280;7185;51.854;6.622;2023-04-07T07:49:56;101292.19;;;11.71;100.00
14204;BME280;7185;51.854;6.622;2023-04-07T07:52:29;101299.91;;;11.87;100.00
14204;BME280;7185;51.854;6.622;2023-04-07T07:55:01;101297.34;;;11.79;100.00
14204;BME280;7185;51.854;6.622;2023-04-07T07:57:33;101301.59;;;11.91;100.00
14204;BME280;7185;51.854;6.622;2023-04-07T08:00:07;101303.50;;;11.76;100.00
14204;BME280;7185;51.854;6.622;2023-04-07T08:02:39;101311.69;;;11.52;100.00
14204;BME280;7185;51.854;6.622;2023-04-07T08:05:12;101314.06;;;11.73;100.00
14204;BME280;7185;51.854;6.622;2023-04-07T08:07:45;101316.75;;;11.69;100.00
14204;BME280;7185;51.854;6.622;2023-04-07T08:10:18;101321.16;;;11.65;100.00
14204;BME280;7185;51.854;6.622;2023-04-07T08:12:51;101324.63;;;11.67;100.00
14204;BME280;7185;51.854;6.622;2023-04-07T08:15:23;101324.69;;;11.64;100.00
14204;BME280;7185;51.854;6.622;2023-04-07T08:18:17;101322.06;;;11.64;100.00
14204;BME280;7185;51.854;6.622;2023-04-07T08:21:03;101324.59;;;11.70;100.00
14204;BME280;7185;51.854;6.622;2023-04-07T08:23:36;101327.94;;;11.85;100.00
14204;BME280;7185;51.854;6.622;2023-04-07T08:26:07;101319.25;;;11.79;100.00
14204;BME280;7185;51.854;6.622;2023-04-07T08:28:39;101328.66;;;12.01;100.00
14204;BME280;7185;51.854;6.622;2023-04-07T08:31:10;101334.81;;;11.95;100.00
14204;BME280;7185;51.854;6.622;2023-04-07T08:33:42;101338.34;;;11.97;100.00
14204;BME280;7185;51.854;6.622;2023-04-07T08:36:14;101338.97;;;12.16;100.00
14204;BME280;7185;51.854;6.622;2023-04-07T08:38:47;101339.22;;;11.94;99.91
14204;BME280;7185;51.854;6.622;2023-04-07T08:41:25;101343.66;;;11.88;100.00
14204;BME280;7185;51.854;6.622;2023-04-07T08:43:59;101343.56;;;12.00;100.00
14204;BME280;7185;51.854;6.622;2023-04-07T08:46:32;101348.03;;;11.89;100.00
14204;BME280;7185;51.854;6.622;2023-04-07T08:49:07;101349.56;;;12.10;100.00
14204;BME280;7185;51.854;6.622;2023-04-07T08:51:44;101356.44;;;12.22;100.00
14204;BME280;7185;51.854;6.622;2023-04-07T08:54:17;101361.56;;;12.31;99.65
14204;BME280;7185;51.854;6.622;2023-04-07T08:56:51;101358.91;;;12.34;100.00
14204;BME280;7185;51.854;6.622;2023-04-07T08:59:23;101365.94;;;12.32;99.26
14204;BME280;7185;51.854;6.622;2023-04-07T09:01:58;101363.34;;;12.29;98.25
14204;BME280;7185;51.854;6.622;2023-04-07T09:04:30;101368.28;;;12.52;97.89
14204;BME280;7185;51.854;6.622;2023-04-07T09:07:02;101376.16;;;12.54;97.41
14204;BME280;7185;51.854;6.622;2023-04-07T09:09:35;101363.97;;;12.47;96.37
14204;BME280;7185;51.854;6.622;2023-04-07T09:12:06;101367.25;;;12.64;95.43
14204;BME280;7185;51.854;6.622;2023-04-07T09:14:38;101371.53;;;12.70;94.99
14204;BME280;7185;51.854;6.622;2023-04-07T09:17:09;101369.03;;;12.62;94.95
14204;BME280;7185;51.854;6.622;2023-04-07T09:19:41;101374.56;;;12.42;95.68
14204;BME280;7185;51.854;6.622;2023-04-07T09:22:13;101381.41;;;12.54;96.03
14204;BME280;7185;51.854;6.622;2023-04-07T09:24:46;101380.66;;;12.47;96.90
14204;BME280;7185;51.854;6.622;2023-04-07T09:27:18;101383.13;;;12.58;95.44
14204;BME280;7185;51.854;6.622;2023-04-07T09:29:49;101383.19;;;12.52;94.87
14204;BME280;7185;51.854;6.622;2023-04-07T09:32:34;101382.31;;;12.53;94.36
14204;BME280;7185;51.854;6.622;2023-04-07T09:35:08;101380.56;;;12.52;94.06
14204;BME280;7185;51.854;6.622;2023-04-07T09:37:39;101378.25;;;12.28;94.96
14204;BME280;7185;51.854;6.622;2023-04-07T09:40:25;101381.63;;;12.38;94.54
14204;BME280;7185;51.854;6.622;2023-04-07T09:42:57;101384.56;;;12.15;95.39
14204;BME280;7185;51.854;6.622;2023-04-07T09:45:30;101382.75;;;12.19;95.42
14204;BME280;7185;51.854;6.622;2023-04-07T09:48:05;101383.00;;;11.97;96.42
14204;BME280;7185;51.854;6.622;2023-04-07T09:50:39;101380.03;;;12.25;97.31
14204;BME280;7185;51.854;6.622;2023-04-07T09:53:11;101384.38;;;12.27;97.15
14204;BME280;7185;51.854;6.622;2023-04-07T09:55:44;101395.63;;;12.40;96.17
14204;BME280;7185;51.854;6.622;2023-04-07T09:58:16;101387.88;;;12.30;95.74
14204;BME280;7185;51.854;6.622;2023-04-07T10:00:48;101389.66;;;12.29;96.17
14204;BME280;7185;51.854;6.622;2023-04-07T10:03:20;101397.53;;;12.29;96.66
14204;BME280;7185;51.854;6.622;2023-04-07T10:05:52;101395.66;;;12.37;96.73
14204;BME280;7185;51.854;6.622;2023-04-07T10:08:24;101392.22;;;12.32;96.60
14204;BME280;7185;51.854;6.622;2023-04-07T10:10:57;101395.66;;;12.37;95.64
14204;BME280;7185;51.854;6.622;2023-04-07T10:13:30;101394.63;;;12.51;95.55
14204;BME280;7185;51.854;6.622;2023-04-07T10:16:04;101397.88;;;12.68;95.79
14204;BME280;7185;51.854;6.622;2023-04-07T10:18:38;101394.97;;;12.87;94.77
14204;BME280;7185;51.854;6.622;2023-04-07T10:21:11;101394.28;;;12.75;95.96
14204;BME280;7185;51.854;6.622;2023-04-07T10:23:52;101396.78;;;12.85;95.11
14204;BME280;7185;51.854;6.622;2023-04-07T10:26:30;101399.25;;;12.96;94.89
14204;BME280;7185;51.854;6.622;2023-04-07T10:29:06;101396.41;;;13.08;94.62
14204;BME280;7185;51.854;6.622;2023-04-07T10:31:39;101404.25;;;13.11;93.81
14204;BME280;7185;51.854;6.622;2023-04-07T10:34:11;101403.03;;;13.32;92.56
14204;BME280;7185;51.854;6.622;2023-04-07T10:37:07;101412.63;;;13.39;92.06
14204;BME280;7185;51.854;6.622;2023-04-07T10:39:39;101404.41;;;13.57;91.60
14204;BME280;7185;51.854;6.622;2023-04-07T10:42:45;101409.34;;;13.75;91.29
14204;BME280;7185;51.854;6.622;2023-04-07T10:45:53;101410.38;;;13.66;91.50
14204;BME280;7185;51.854;6.622;2023-04-07T10:48:25;101413.59;;;13.84;89.08
14204;BME280;7185;51.854;6.622;2023-04-07T10:51:15;101412.44;;;13.97;88.69
14204;BME280;7185;51.854;6.622;2023-04-07T10:54:18;101417.91;;;13.88;88.76
14204;BME280;7185;51.854;6.622;2023-04-07T10:57:09;101421.78;;;13.68;87.10
14204;BME280;7185;51.854;6.622;2023-04-07T11:00:14;101422.84;;;13.57;88.45
14204;BME280;7185;51.854;6.622;2023-04-07T11:02:46;101426.22;;;13.65;89.07
14204;BME280;7185;51.854;6.622;2023-04-07T11:05:19;101423.13;;;13.41;89.92
14204;BME280;7185;51.854;6.622;2023-04-07T11:07:52;101423.94;;;13.45;91.04
14204;BME280;7185;51.854;6.622;2023-04-07T11:10:31;101431.53;;;13.63;90.73
14204;BME280;7185;51.854;6.622;2023-04-07T11:13:07;101432.19;;;13.75;91.63
14204;BME280;7185;51.854;6.622;2023-04-07T11:15:40;101430.50;;;13.72;89.87
14204;BME280;7185;51.854;6.622;2023-04-07T11:18:16;101439.97;;;13.28;90.45
14204;BME280;7185;51.854;6.622;2023-04-07T11:20:51;101436.66;;;13.15;90.00
14204;BME280;7185;51.854;6.622;2023-04-07T11:23:24;101437.41;;;13.23;90.70
14204;BME280;7185;51.854;6.622;2023-04-07T11:25:59;101435.63;;;13.25;91.45
14204;BME280;7185;51.854;6.622;2023-04-07T11:28:31;101435.72;;;13.20;92.47
14204;BME280;7185;51.854;6.622;2023-04-07T11:31:04;101449.00;;;13.13;93.33
14204;BME280;7185;51.854;6.622;2023-04-07T11:33:36;101442.09;;;13.05;94.60
14204;BME280;7185;51.854;6.622;2023-04-07T11:36:08;101435.78;;;13.17;94.05
14204;BME280;7185;51.854;6.622;2023-04-07T11:38:40;101438.22;;;13.28;95.25
14204;BME280;7185;51.854;6.622;2023-04-07T11:41:13;101444.25;;;13.35;94.64
14204;BME280;7185;51.854;6.622;2023-04-07T11:43:45;101441.44;;;13.49;94.83
14204;BME280;7185;51.854;6.622;2023-04-07T11:46:18;101444.84;;;13.54;94.91
14204;BME280;7185;51.854;6.622;2023-04-07T11:48:50;101446.38;;;13.67;92.85
14204;BME280;7185;51.854;6.622;2023-04-07T11:51:22;101443.63;;;13.74;92.76
14204;BME280;7185;51.854;6.622;2023-04-07T11:53:54;101450.81;;;13.65;92.24
14204;BME280;7185;51.854;6.622;2023-04-07T11:56:26;101455.88;;;13.78;92.67
14204;BME280;7185;51.854;6.622;2023-04-07T11:58:59;101455.44;;;13.51;92.53
14204;BME280;7185;51.854;6.622;2023-04-07T12:01:39;101458.59;;;13.71;92.45
14204;BME280;7185;51.854;6.622;2023-04-07T12:04:12;101466.31;;;13.82;91.38
14204;BME280;7185;51.854;6.622;2023-04-07T12:06:47;101464.63;;;13.78;91.30
14204;BME280;7185;51.854;6.622;2023-04-07T12:09:26;101463.66;;;13.84;91.53
14204;BME280;7185;51.854;6.622;2023-04-07T12:11:58;101466.41;;;13.78;91.50
14204;BME280;7185;51.854;6.622;2023-04-07T12:14:30;101465.78;;;13.63;92.29
14204;BME280;7185;51.854;6.622;2023-04-07T12:17:03;101472.06;;;13.56;93.18
14204;BME280;7185;51.854;6.622;2023-04-07T12:19:34;101479.06;;;13.55;93.61
14204;BME280;7185;51.854;6.622;2023-04-07T12:22:08;101476.41;;;13.57;93.52
14204;BME280;7185;51.854;6.622;2023-04-07T12:24:40;101483.63;;;13.46;93.95
14204;BME280;7185;51.854;6.622;2023-04-07T12:27:11;101479.16;;;13.51;93.52
14204;BME280;7185;51.854;6.622;2023-04-07T12:29:43;101488.91;;;13.46;93.74
14204;BME280;7185;51.854;6.622;2023-04-07T12:32:16;101484.03;;;13.18;94.70
14204;BME280;7185;51.854;6.622;2023-04-07T12:34:48;101490.59;;;12.87;95.48
14204;BME280;7185;51.854;6.622;2023-04-07T12:37:20;101493.94;;;13.00;95.64
14204;BME280;7185;51.854;6.622;2023-04-07T12:39:51;101491.34;;;12.97;96.21
14204;BME280;7185;51.854;6.622;2023-04-07T12:42:23;101491.34;;;12.97;96.70
14204;BME280;7185;51.854;6.622;2023-04-07T12:44:55;101503.84;;;12.80;96.84
14204;BME280;7185;51.854;6.622;2023-04-07T12:47:28;101516.19;;;12.78;97.22
14204;BME280;7185;51.854;6.622;2023-04-07T12:50:00;101499.50;;;12.79;97.34
14204;BME280;7185;51.854;6.622;2023-04-07T12:52:32;101502.81;;;12.91;97.08
14204;BME280;7185;51.854;6.622;2023-04-07T12:55:04;101503.91;;;12.77;97.86
14204;BME280;7185;51.854;6.622;2023-04-07T12:57:35;101511.94;;;12.66;97.14
14204;BME280;7185;51.854;6.622;2023-04-07T13:00:09;101511.84;;;12.72;97.48
14204;BME280;7185;51.854;6.622;2023-04-07T13:02:47;101516.94;;;12.84;98.45
14204;BME280;7185;51.854;6.622;2023-04-07T13:05:18;101511.00;;;12.70;98.30
14204;BME280;7185;51.854;6.622;2023-04-07T13:07:50;101515.28;;;12.77;98.32
14204;BME280;7185;51.854;6.622;2023-04-07T13:10:22;101514.53;;;12.67;98.75
14204;BME280;7185;51.854;6.622;2023-04-07T13:12:54;101509.41;;;12.58;98.77
14204;BME280;7185;51.854;6.622;2023-04-07T13:15:25;101516.31;;;12.65;98.59
14204;BME280;7185;51.854;6.622;2023-04-07T13:17:59;101521.53;;;12.68;99.38
14204;BME280;7185;51.854;6.622;2023-04-07T13:20:30;101529.44;;;12.68;98.56
14204;BME280;7185;51.854;6.622;2023-04-07T13:23:02;101520.03;;;12.49;99.02
14204;BME280;7185;51.854;6.622;2023-04-07T13:25:33;101521.56;;;12.65;97.09
14204;BME280;7185;51.854;6.622;2023-04-07T13:28:05;101523.03;;;12.88;97.03
14204;BME280;7185;51.854;6.622;2023-04-07T13:30:38;101523.81;;;12.96;95.86